createdAt,value
2019-05-19T00:01:09.542Z,95251.64
2019-05-19T00:06:06.634Z,95244.42
2019-05-19T00:11:03.754Z,95229.74
2019-05-19T00:16:00.863Z,95237.66
2019-05-19T00:21:00.293Z,95241.37
2019-05-19T00:25:57.607Z,95234.81
2019-05-19T00:30:55.711Z,95233.13
2019-05-19T00:35:52.726Z,95229.45
2019-05-19T00:40:49.805Z,95231.14
2019-05-19T00:45:48.665Z,95226.88
2019-05-19T00:50:48.447Z,95219.05
2019-05-19T00:55:45.763Z,95221.08
2019-05-19T01:00:42.836Z,95218.45
2019-05-19T01:05:40.016Z,95214.28
2019-05-19T01:10:37.100Z,95210.52
2019-05-19T01:15:34.414Z,95214.37
2019-05-19T01:20:32.581Z,95220.58
2019-05-19T01:25:31.943Z,95221.22
2019-05-19T01:30:29.065Z,95227.38
2019-05-19T01:35:26.057Z,95223.03
2019-05-19T01:40:25.932Z,95218.76
2019-05-19T01:45:22.984Z,95222.56
2019-05-19T01:50:20.125Z,95219.52
2019-05-19T01:55:17.264Z,95215.17
2019-05-19T02:00:14.626Z,95221.00
2019-05-19T02:05:13.109Z,95217.20
2019-05-19T02:10:11.415Z,95215.17
2019-05-19T02:15:09.099Z,95217.08
2019-05-19T02:20:07.783Z,95223.32
2019-05-19T02:25:04.885Z,95223.91
2019-05-19T02:30:07.698Z,95215.00
2019-05-19T02:35:05.724Z,95213.86
2019-05-19T02:40:04.175Z,95218.47
2019-05-19T02:45:02.300Z,95214.23
2019-05-19T02:50:00.473Z,95220.45
2019-05-19T02:55:01.721Z,95218.94
2019-05-19T02:59:59.874Z,95225.13
2019-05-19T03:04:56.950Z,95226.73
2019-05-19T03:09:54.076Z,95229.32
2019-05-19T03:14:51.181Z,95236.83
2019-05-19T03:19:48.242Z,95242.38
2019-05-19T03:24:45.282Z,95238.06
2019-05-19T03:29:45.952Z,95254.33
2019-05-19T03:34:43.293Z,95246.09
2019-05-19T03:39:40.317Z,95248.72
2019-05-19T03:44:37.478Z,95253.26
2019-05-19T03:49:36.301Z,95256.36
2019-05-19T03:54:35.204Z,95257.28
2019-05-19T03:59:34.079Z,95249.86
2019-05-19T04:04:31.309Z,95246.64
2019-05-19T04:09:28.373Z,95252.63
2019-05-19T04:14:25.410Z,95251.78
2019-05-19T04:19:27.016Z,95251.47
2019-05-19T04:24:26.039Z,95255.71
2019-05-19T04:29:23.082Z,95246.81
2019-05-19T04:34:21.504Z,95245.94
2019-05-19T04:39:18.687Z,95244.22
2019-05-19T04:44:15.778Z,95236.32
2019-05-19T04:49:14.721Z,95233.44
2019-05-19T04:54:11.694Z,95234.98
2019-05-19T04:59:08.798Z,95231.13
2019-05-19T05:04:05.873Z,95228.50
2019-05-19T05:09:05.786Z,95230.50
2019-05-19T05:14:02.968Z,95236.42
2019-05-19T05:18:59.972Z,95241.12
2019-05-19T05:24:00.858Z,95245.39
2019-05-19T05:29:00.942Z,95242.16
2019-05-19T05:34:01.465Z,95247.63
2019-05-19T05:39:02.293Z,95245.38
2019-05-19T05:43:59.429Z,95249.62
2019-05-19T05:49:00.222Z,95250.03
2019-05-19T05:53:58.556Z,95241.35
2019-05-19T05:58:55.654Z,95247.99
2019-05-19T06:03:56.336Z,95235.92
2019-05-19T06:08:53.775Z,95234.83
2019-05-19T06:13:50.848Z,95237.66
2019-05-19T06:18:50.237Z,95237.77
2019-05-19T06:23:47.669Z,95240.87
2019-05-19T06:28:46.523Z,95249.97
2019-05-19T06:33:43.595Z,95241.68
2019-05-19T06:38:41.815Z,95245.27
2019-05-19T06:43:40.302Z,95248.64
2019-05-19T06:48:41.661Z,95244.32
2019-05-19T06:53:38.873Z,95249.55
2019-05-19T06:58:36.225Z,95244.43
2019-05-19T07:03:38.501Z,95248.47
2019-05-19T07:08:39.367Z,95247.79
2019-05-19T07:13:39.319Z,95246.22
2019-05-19T07:18:36.465Z,95255.06
2019-05-19T07:23:37.204Z,95257.34
2019-05-19T07:28:34.032Z,95254.06
2019-05-19T07:33:32.897Z,95261.59
2019-05-19T07:38:31.563Z,95247.47
2019-05-19T07:43:28.711Z,95251.39
2019-05-19T07:48:27.386Z,95250.27
2019-05-19T07:53:26.560Z,95258.03
2019-05-19T07:58:23.639Z,95247.42
2019-05-19T08:03:22.598Z,95243.29
2019-05-19T08:08:19.806Z,95256.04
2019-05-19T08:13:20.582Z,95251.78
2019-05-19T08:18:17.731Z,95248.98
2019-05-19T08:23:14.869Z,95246.03
2019-05-19T08:28:14.163Z,95244.39
2019-05-19T08:33:11.222Z,95243.55
2019-05-19T08:38:10.234Z,95234.56
2019-05-19T08:43:07.275Z,95238.61
2019-05-19T08:48:04.489Z,95238.08
2019-05-19T08:53:02.729Z,95243.92
2019-05-19T08:58:09.194Z,95242.47
2019-05-19T09:03:02.240Z,95244.35
2019-05-19T09:07:59.392Z,95243.67
2019-05-19T09:13:00.287Z,95236.42
2019-05-19T09:17:57.516Z,95232.58
2019-05-19T09:22:56.479Z,95228.39
2019-05-19T09:27:53.584Z,95237.41
2019-05-19T09:32:50.707Z,95234.36
2019-05-19T09:37:49.711Z,95230.05
2019-05-19T09:42:46.839Z,95230.25
2019-05-19T09:47:43.958Z,95230.48
2019-05-19T09:52:41.066Z,95227.66
2019-05-19T09:57:38.140Z,95225.38
2019-05-19T10:02:35.217Z,95223.86
2019-05-19T10:07:33.139Z,95227.63
2019-05-19T10:12:30.478Z,95221.25
2019-05-19T10:17:29.752Z,95220.88
2019-05-19T10:22:26.941Z,95220.30
2019-05-19T10:27:24.145Z,95203.69
2019-05-19T10:32:21.340Z,95204.89
2019-05-19T10:37:18.530Z,95207.00
2019-05-19T10:42:15.846Z,95194.63
2019-05-19T10:47:12.999Z,95203.27
2019-05-19T10:52:10.264Z,95206.09
2019-05-19T10:57:07.461Z,95204.34
2019-05-19T11:02:09.753Z,95213.80
2019-05-19T11:07:09.834Z,95220.05
2019-05-19T11:12:06.907Z,95216.25
2019-05-19T11:17:05.262Z,95209.43
2019-05-19T11:22:02.453Z,95217.41
2019-05-19T11:27:00.643Z,95211.84
2019-05-19T11:31:59.264Z,95217.81
2019-05-19T11:37:00.480Z,95217.14
2019-05-19T11:41:59.857Z,95212.16
2019-05-19T11:46:56.879Z,95196.11
2019-05-19T11:51:55.909Z,95189.56
2019-05-19T11:56:57.013Z,95191.09
2019-05-19T12:01:54.252Z,95195.44
2019-05-19T12:06:51.796Z,95197.03
2019-05-19T12:11:50.472Z,95199.77
2019-05-19T12:16:47.677Z,95192.98
2019-05-19T12:21:45.986Z,95191.81
2019-05-19T12:26:43.154Z,95185.56
2019-05-19T12:31:40.268Z,95182.22
2019-05-19T12:36:37.506Z,95186.08
2019-05-19T12:41:34.630Z,95179.09
2019-05-19T12:46:33.631Z,95184.25
2019-05-19T12:51:38.017Z,95183.99
2019-05-19T12:56:39.747Z,95178.27
2019-05-19T13:01:34.030Z,95164.96
2019-05-19T13:06:31.398Z,95157.80
2019-05-19T13:11:31.434Z,95163.02
2019-05-19T13:16:31.156Z,95159.13
2019-05-19T13:21:29.831Z,95149.92
2019-05-19T13:26:29.575Z,95146.47
2019-05-19T13:31:28.673Z,95146.08
2019-05-19T13:36:27.074Z,95145.72
2019-05-19T13:41:25.642Z,95148.98
2019-05-19T13:46:29.379Z,95149.78
2019-05-19T13:51:28.376Z,95144.13
2019-05-19T13:56:25.619Z,95140.75
2019-05-19T14:01:28.657Z,95132.03
2019-05-19T14:06:24.056Z,95136.30
2019-05-19T14:11:21.120Z,95135.19
2019-05-19T14:16:22.768Z,95135.61
2019-05-19T14:21:24.331Z,95134.16
2019-05-19T14:26:23.024Z,95139.67
2019-05-19T14:31:22.139Z,95142.34
2019-05-19T14:36:20.776Z,95091.34
2019-05-19T14:41:31.575Z,95125.19
2019-05-19T14:46:16.814Z,95135.42
2019-05-19T14:51:13.933Z,95137.70
2019-05-19T14:56:11.155Z,95135.68
2019-05-19T15:01:10.476Z,95144.16
2019-05-19T15:06:09.398Z,95151.19
2019-05-19T15:11:06.585Z,95143.45
2019-05-19T15:16:05.542Z,95133.05
2019-05-19T15:21:03.986Z,95135.98
2019-05-19T15:26:03.424Z,95126.30
2019-05-19T15:31:00.505Z,95120.00
2019-05-19T15:35:59.307Z,95117.67
2019-05-19T15:40:57.774Z,95118.16
2019-05-19T15:45:54.823Z,95115.96
2019-05-19T15:50:51.914Z,95124.97
2019-05-19T15:55:49.079Z,95123.25
2019-05-19T16:00:49.966Z,95133.08
2019-05-19T16:05:51.546Z,95137.78
2019-05-19T16:10:53.072Z,95140.77
2019-05-19T16:15:50.233Z,95145.18
2019-05-19T16:20:51.006Z,95145.09
2019-05-19T16:25:49.839Z,95151.31
2019-05-19T16:30:47.782Z,95144.50
2019-05-19T16:35:46.674Z,95154.02
2019-05-19T16:40:45.043Z,95145.03
2019-05-19T16:45:42.110Z,95138.47
2019-05-19T16:50:39.237Z,95146.94
2019-05-19T16:55:36.325Z,95138.62
2019-05-19T17:00:34.604Z,95141.95
2019-05-19T17:05:31.746Z,95146.92
2019-05-19T17:10:31.046Z,95153.30
2019-05-19T17:15:30.038Z,95151.49
2019-05-19T17:20:30.722Z,95160.55
2019-05-19T17:25:26.881Z,95150.09
2019-05-19T17:30:27.771Z,95154.45
2019-05-19T17:35:24.910Z,95153.31
2019-05-19T17:40:23.920Z,95153.30
2019-05-19T17:45:26.370Z,95156.15
2019-05-19T17:50:33.690Z,95149.24
2019-05-19T17:55:33.214Z,95148.11
2019-05-19T18:00:41.526Z,95139.48
2019-05-19T18:05:38.769Z,95145.45
2019-05-19T18:10:36.093Z,95142.42
2019-05-19T18:15:33.812Z,95143.06
2019-05-19T18:20:31.455Z,95144.20
2019-05-19T18:25:28.592Z,95139.23
2019-05-19T18:30:29.011Z,95143.63
2019-05-19T18:35:26.164Z,95143.19
2019-05-19T18:40:24.457Z,95150.12
2019-05-19T18:45:21.446Z,95148.52
2019-05-19T18:50:18.515Z,95166.72
2019-05-19T18:55:15.486Z,95160.75
2019-05-19T19:00:23.142Z,95170.63
2019-05-19T19:05:20.113Z,95170.70
2019-05-19T19:10:17.729Z,95167.50
2019-05-19T19:15:14.924Z,95160.48
2019-05-19T19:20:12.012Z,95151.53
2019-05-19T19:25:08.984Z,95158.63
2019-05-19T19:30:07.026Z,95156.18
2019-05-19T19:35:07.327Z,95158.90
2019-05-19T19:40:06.137Z,95150.75
2019-05-19T19:45:04.068Z,95144.76
2019-05-19T19:50:01.227Z,95131.66
2019-05-19T19:55:00.292Z,95131.12
2019-05-19T19:59:57.550Z,95121.30
2019-05-19T20:04:57.321Z,95131.63
2019-05-19T20:09:54.425Z,95135.94
2019-05-19T20:14:51.532Z,95124.77
2019-05-19T20:19:48.658Z,95114.44
2019-05-19T20:24:45.696Z,95113.33
2019-05-19T20:29:44.205Z,95113.28
2019-05-19T20:34:40.877Z,95104.51
2019-05-19T20:39:40.750Z,95098.20
2019-05-19T20:44:40.678Z,95102.80
2019-05-19T20:49:37.771Z,95100.91
2019-05-19T20:54:34.714Z,95096.80
2019-05-19T20:59:31.798Z,95105.03
2019-05-19T21:04:28.917Z,95107.42
2019-05-19T21:09:26.076Z,95104.38
2019-05-19T21:14:23.037Z,95089.47
2019-05-19T21:19:20.151Z,95096.51
2019-05-19T21:24:17.233Z,95096.18
2019-05-19T21:29:14.366Z,95099.68
2019-05-19T21:34:11.375Z,95100.41
2019-05-19T21:39:08.422Z,95113.80
2019-05-19T21:44:05.512Z,95111.61
2019-05-19T21:49:04.455Z,95105.58
2019-05-19T21:54:01.414Z,95107.45
2019-05-19T21:58:58.597Z,95114.50
2019-05-19T22:03:55.868Z,95113.73
2019-05-19T22:08:52.980Z,95111.44
2019-05-19T22:13:49.957Z,95098.05
2019-05-19T22:18:48.771Z,95086.41
2019-05-19T22:23:45.801Z,95092.86
2019-05-19T22:28:42.860Z,95080.80
2019-05-19T22:33:41.595Z,95056.20
2019-05-19T22:38:38.930Z,95052.97
2019-05-19T22:43:37.854Z,95064.38
2019-05-19T22:48:35.042Z,95062.16
2019-05-19T22:53:32.946Z,95049.38
2019-05-19T22:58:30.379Z,95056.92
2019-05-19T23:03:27.421Z,95048.08
2019-05-19T23:08:24.443Z,95042.15
2019-05-19T23:13:21.414Z,95042.95
2019-05-19T23:18:18.541Z,95038.89
2019-05-19T23:23:15.543Z,95024.21
2019-05-19T23:28:12.582Z,95024.70
2019-05-19T23:33:09.572Z,95018.41
2019-05-19T23:38:06.673Z,95015.03
2019-05-19T23:43:03.744Z,95003.64
2019-05-19T23:48:00.858Z,94987.75
2019-05-19T23:52:57.829Z,94980.19
2019-05-19T23:57:54.971Z,94972.17
